Time;durP1;ratioP1;P1;durP2;ratioP2;P2;SDS_P1;SDS_P2;PMS_P1;PMS_P2;Temp;Humidity;BMP_temperature;BMP_pressure;BME280_temperature;BME280_humidity;BME280_pressure;Samples;Min_cycle;Max_cycle;Signal;HPM_P1;HPM_P2
2021/08/25 00:00:05;;;;;;;11.23;6.32;;;;;;;;;;6163845;23;20192;-93
2021/08/25 00:03:17;;;;;;;11.07;6.00;;;;;;;;;;6165166;23;20208;-92
2021/08/25 00:06:22;;;;;;;19.63;6.75;;;;;;;;;;6164172;23;20177;-91
2021/08/25 00:09:29;;;;;;;20.77;6.82;;;;;;;;;;6163885;23;20616;-89
2021/08/25 00:12:34;;;;;;;14.30;6.88;;;;;;;;;;6163881;23;20210;-90
2021/08/25 00:15:43;;;;;;;11.00;6.35;;;;;;;;;;6164400;23;20256;-91
2021/08/25 00:18:48;;;;;;;14.55;6.43;;;;;;;;;;6163419;23;20200;-91
2021/08/25 00:21:54;;;;;;;13.18;6.65;;;;;;;;;;6163345;23;20616;-90
2021/08/25 00:25:00;;;;;;;11.18;6.25;;;;;;;;;;6164069;23;20172;-91
2021/08/25 00:28:05;;;;;;;12.30;6.50;;;;;;;;;;6164652;23;20247;-90
2021/08/25 00:31:10;;;;;;;15.10;6.82;;;;;;;;;;6164834;23;20169;-91
2021/08/25 00:34:15;;;;;;;12.07;6.72;;;;;;;;;;6163954;23;20216;-90
2021/08/25 00:37:20;;;;;;;14.13;6.32;;;;;;;;;;6162712;23;20200;-91
2021/08/25 00:40:27;;;;;;;13.88;6.50;;;;;;;;;;6168228;23;20199;-91
2021/08/25 00:43:33;;;;;;;10.50;6.85;;;;;;;;;;6190455;23;20211;-91
2021/08/25 00:46:39;;;;;;;11.98;6.85;;;;;;;;;;6178057;23;20171;-90
2021/08/25 00:49:45;;;;;;;13.65;7.10;;;;;;;;;;6176105;23;20172;-91
2021/08/25 00:52:50;;;;;;;10.32;6.80;;;;;;;;;;6174768;23;20168;-90
2021/08/25 00:55:58;;;;;;;9.73;6.05;;;;;;;;;;6175514;23;20510;-90
2021/08/25 00:59:03;;;;;;;13.00;6.95;;;;;;;;;;6175509;23;20196;-91
2021/08/25 01:02:11;;;;;;;13.73;7.18;;;;;;;;;;6193657;23;20164;-91
2021/08/25 01:05:16;;;;;;;11.52;6.53;;;;;;;;;;6175447;23;20175;-91
2021/08/25 01:08:21;;;;;;;10.77;6.28;;;;;;;;;;6175436;23;20172;-91
2021/08/25 01:11:28;;;;;;;10.93;6.80;;;;;;;;;;6175375;23;20172;-91
2021/08/25 01:14:34;;;;;;;11.90;6.47;;;;;;;;;;6174835;23;20176;-90
2021/08/25 01:17:39;;;;;;;10.45;6.75;;;;;;;;;;6175519;23;20307;-91
2021/08/25 01:20:45;;;;;;;13.52;6.55;;;;;;;;;;6174760;23;20191;-91
2021/08/25 01:23:52;;;;;;;13.25;6.43;;;;;;;;;;6174538;23;20675;-91
2021/08/25 01:26:58;;;;;;;13.75;6.50;;;;;;;;;;6174634;23;20228;-91
2021/08/25 01:30:04;;;;;;;13.73;6.32;;;;;;;;;;6175212;23;20172;-91
2021/08/25 01:33:17;;;;;;;10.55;6.65;;;;;;;;;;6174395;23;20623;-90
2021/08/25 01:36:22;;;;;;;11.63;6.85;;;;;;;;;;6175338;23;20255;-89
2021/08/25 01:39:28;;;;;;;14.00;6.60;;;;;;;;;;6175299;23;20315;-91
2021/08/25 01:42:33;;;;;;;14.23;6.43;;;;;;;;;;6175229;23;20172;-90
2021/08/25 01:45:40;;;;;;;12.15;7.63;;;;;;;;;;6174933;23;20246;-90
2021/08/25 01:48:45;;;;;;;13.80;7.35;;;;;;;;;;6173349;23;20219;-90
2021/08/25 01:51:50;;;;;;;17.42;7.13;;;;;;;;;;6175469;23;20151;-89
2021/08/25 01:54:55;;;;;;;13.60;7.45;;;;;;;;;;6176938;23;20172;-90
2021/08/25 01:58:00;;;;;;;15.52;7.60;;;;;;;;;;6174360;23;20171;-89
2021/08/25 02:01:07;;;;;;;13.45;7.47;;;;;;;;;;6175377;23;20634;-90
2021/08/25 02:04:11;;;;;;;16.55;7.57;;;;;;;;;;6173033;23;20183;-88
2021/08/25 02:07:16;;;;;;;15.55;7.53;;;;;;;;;;6173136;23;20167;-91
2021/08/25 02:10:21;;;;;;;15.63;7.32;;;;;;;;;;6172841;23;20239;-91
2021/08/25 02:13:26;;;;;;;11.90;6.88;;;;;;;;;;6174307;23;20250;-91
2021/08/25 02:16:32;;;;;;;14.05;6.80;;;;;;;;;;6173819;23;20631;-90
2021/08/25 02:19:37;;;;;;;12.02;6.47;;;;;;;;;;6174311;23;20196;-90
2021/08/25 02:22:42;;;;;;;9.88;6.00;;;;;;;;;;6174616;23;20164;-90
2021/08/25 02:25:47;;;;;;;12.73;6.47;;;;;;;;;;6173131;23;20171;-90
2021/08/25 02:28:52;;;;;;;11.68;6.03;;;;;;;;;;6174512;23;20296;-90
2021/08/25 02:31:59;;;;;;;10.38;5.55;;;;;;;;;;6179255;23;20591;-91
2021/08/25 02:35:04;;;;;;;10.95;5.70;;;;;;;;;;6177943;23;20211;-91
2021/08/25 02:38:11;;;;;;;23.17;6.55;;;;;;;;;;6175854;23;20168;-91
2021/08/25 02:41:17;;;;;;;16.13;5.63;;;;;;;;;;6197843;23;20211;-92
2021/08/25 02:44:23;;;;;;;13.70;5.80;;;;;;;;;;6165284;23;20208;-91
2021/08/25 02:47:29;;;;;;;11.63;6.18;;;;;;;;;;6166784;23;20220;-91
2021/08/25 02:50:34;;;;;;;20.60;6.38;;;;;;;;;;6168680;23;20179;-92
2021/08/25 02:53:38;;;;;;;12.20;5.97;;;;;;;;;;6166868;23;20579;-91
2021/08/25 02:56:43;;;;;;;15.90;6.07;;;;;;;;;;6167289;23;20243;-92
2021/08/25 02:59:48;;;;;;;14.15;5.50;;;;;;;;;;6168149;23;20208;-91
2021/08/25 03:02:55;;;;;;;10.98;5.70;;;;;;;;;;6167958;23;20169;-92
2021/08/25 03:06:00;;;;;;;23.65;6.20;;;;;;;;;;6166345;23;20243;-91
2021/08/25 03:09:05;;;;;;;12.63;5.90;;;;;;;;;;6167733;23;20216;-91
2021/08/25 03:12:10;;;;;;;10.07;5.55;;;;;;;;;;6166065;23;20860;-89
2021/08/25 03:15:15;;;;;;;13.18;4.82;;;;;;;;;;6165181;23;20248;-91
2021/08/25 03:18:21;;;;;;;21.05;5.90;;;;;;;;;;6165720;23;20188;-91
2021/08/25 03:21:26;;;;;;;12.75;5.80;;;;;;;;;;6164184;23;20176;-90
2021/08/25 03:24:32;;;;;;;28.50;6.50;;;;;;;;;;6177224;23;20153;-90
2021/08/25 03:27:38;;;;;;;32.50;6.68;;;;;;;;;;6164019;23;20176;-90
2021/08/25 03:30:43;;;;;;;12.20;6.30;;;;;;;;;;6163932;23;20176;-90
2021/08/25 03:33:50;;;;;;;21.23;5.82;;;;;;;;;;6165377;23;20192;-90
2021/08/25 03:36:54;;;;;;;11.10;5.28;;;;;;;;;;6166495;23;20570;-90
2021/08/25 03:39:59;;;;;;;9.90;4.60;;;;;;;;;;6163392;23;20192;-90
2021/08/25 03:43:05;;;;;;;7.97;4.80;;;;;;;;;;6171811;23;20196;-91
2021/08/25 03:46:10;;;;;;;7.60;4.53;;;;;;;;;;6178623;23;20184;-90
2021/08/25 03:49:17;;;;;;;7.60;4.70;;;;;;;;;;6176125;23;20743;-90
2021/08/25 03:52:22;;;;;;;7.88;4.50;;;;;;;;;;6178387;23;20175;-91
2021/08/25 03:55:27;;;;;;;13.38;5.30;;;;;;;;;;6176936;23;20217;-91
2021/08/25 03:58:32;;;;;;;7.93;4.85;;;;;;;;;;6177068;23;20156;-90
2021/08/25 04:01:37;;;;;;;6.82;4.35;;;;;;;;;;6177762;23;20344;-89
2021/08/25 04:04:43;;;;;;;8.90;4.60;;;;;;;;;;6178092;23;20303;-90
2021/08/25 04:07:48;;;;;;;8.32;4.25;;;;;;;;;;6177731;23;20293;-90
2021/08/25 04:10:53;;;;;;;11.40;4.10;;;;;;;;;;6178981;23;20683;-92
2021/08/25 04:13:58;;;;;;;10.43;4.35;;;;;;;;;;6177407;23;20219;-90
2021/08/25 04:17:04;;;;;;;7.80;4.15;;;;;;;;;;6177793;23;20172;-90
2021/08/25 04:20:12;;;;;;;9.15;4.57;;;;;;;;;;6178317;23;20206;-91
2021/08/25 04:23:17;;;;;;;12.13;5.07;;;;;;;;;;6177860;23;20222;-90
2021/08/25 04:26:21;;;;;;;8.25;4.30;;;;;;;;;;6177507;23;20886;-89
2021/08/25 04:29:26;;;;;;;15.52;5.15;;;;;;;;;;6179019;23;20164;-91
2021/08/25 04:32:31;;;;;;;10.75;3.97;;;;;;;;;;6180995;23;20175;-91
2021/08/25 04:35:38;;;;;;;10.52;4.50;;;;;;;;;;6179749;23;20291;-90
2021/08/25 04:38:44;;;;;;;7.22;3.90;;;;;;;;;;6181848;23;20184;-90
2021/08/25 04:41:49;;;;;;;7.43;4.07;;;;;;;;;;6178816;23;20251;-90
2021/08/25 04:44:53;;;;;;;7.85;3.72;;;;;;;;;;6165256;23;20196;-89
2021/08/25 04:47:58;;;;;;;9.82;3.97;;;;;;;;;;6163518;23;20172;-90
2021/08/25 04:51:13;;;;;;;11.57;4.78;;;;;;;;;;6165844;23;20176;-90
2021/08/25 04:54:19;;;;;;;12.65;4.57;;;;;;;;;;6166398;23;20177;-91
2021/08/25 04:57:24;;;;;;;7.97;4.22;;;;;;;;;;6166587;23;20169;-91
2021/08/25 05:00:29;;;;;;;8.82;4.18;;;;;;;;;;6165714;23;20661;-90
2021/08/25 05:03:34;;;;;;;8.43;3.88;;;;;;;;;;6167705;23;20228;-90
2021/08/25 05:06:41;;;;;;;10.52;5.32;;;;;;;;;;6169910;23;20148;-91
2021/08/25 05:09:45;;;;;;;15.10;5.15;;;;;;;;;;6172721;23;20164;-91
2021/08/25 05:12:51;;;;;;;12.32;4.72;;;;;;;;;;6166847;23;20208;-91
2021/08/25 05:15:55;;;;;;;10.88;5.00;;;;;;;;;;6167485;23;20625;-93
2021/08/25 05:19:03;;;;;;;8.57;4.40;;;;;;;;;;6165028;23;20164;-91
2021/08/25 05:22:09;;;;;;;8.77;4.10;;;;;;;;;;6165829;23;20247;-91
2021/08/25 05:25:41;;;;;;;8.73;4.13;;;;;;;;;;6168009;23;20196;-91
2021/08/25 05:28:46;;;;;;;12.38;3.90;;;;;;;;;;6166533;23;20684;-92
2021/08/25 05:31:51;;;;;;;10.65;3.83;;;;;;;;;;6169654;23;20172;-91
2021/08/25 05:35:02;;;;;;;8.38;4.35;;;;;;;;;;6169578;23;20164;-92
2021/08/25 05:38:09;;;;;;;12.73;4.15;;;;;;;;;;6166470;23;20212;-90
2021/08/25 05:41:15;;;;;;;11.80;3.80;;;;;;;;;;6167728;23;20204;-90
2021/08/25 05:44:20;;;;;;;8.48;3.38;;;;;;;;;;6167911;23;20191;-90
2021/08/25 05:47:25;;;;;;;9.70;3.75;;;;;;;;;;6169006;23;20244;-92
2021/08/25 05:50:30;;;;;;;12.35;4.03;;;;;;;;;;6166876;23;20173;-91
2021/08/25 05:53:36;;;;;;;12.50;4.13;;;;;;;;;;6163941;23;20168;-90
2021/08/25 05:56:42;;;;;;;11.10;4.22;;;;;;;;;;6167220;23;20328;-92
2021/08/25 05:59:47;;;;;;;10.35;3.38;;;;;;;;;;6166801;23;20281;-93
2021/08/25 06:02:52;;;;;;;16.13;3.63;;;;;;;;;;6167843;23;20168;-91
2021/08/25 06:13:24;;;;;;;10.82;4.18;;;;;;;;;;6170830;23;20183;-90
2021/08/25 06:16:30;;;;;;;8.88;3.90;;;;;;;;;;6167712;23;20236;-91
2021/08/25 06:19:35;;;;;;;8.65;3.85;;;;;;;;;;6168480;23;20164;-91
2021/08/25 06:22:40;;;;;;;11.43;3.90;;;;;;;;;;6168950;23;20156;-89
2021/08/25 06:25:45;;;;;;;13.93;4.20;;;;;;;;;;6169731;23;20188;-92
2021/08/25 06:28:52;;;;;;;9.52;3.30;;;;;;;;;;6170308;23;20189;-92
2021/08/25 06:31:57;;;;;;;11.38;3.72;;;;;;;;;;6172283;23;20192;-91
2021/08/25 06:35:02;;;;;;;12.90;3.72;;;;;;;;;;6168680;23;20173;-91
2021/08/25 06:38:07;;;;;;;10.35;3.45;;;;;;;;;;6169186;23;20262;-90
2021/08/25 06:41:13;;;;;;;9.73;3.40;;;;;;;;;;6168177;23;20184;-92
2021/08/25 06:44:20;;;;;;;7.82;3.88;;;;;;;;;;6167601;23;20192;-92
2021/08/25 06:47:27;;;;;;;10.32;4.10;;;;;;;;;;6168816;23;20176;-92
2021/08/25 06:50:34;;;;;;;12.27;3.85;;;;;;;;;;6169042;23;20237;-90
2021/08/25 06:53:39;;;;;;;12.38;3.90;;;;;;;;;;6170821;23;20172;-91
2021/08/25 06:56:44;;;;;;;15.70;3.85;;;;;;;;;;6167332;23;20242;-91
2021/08/25 06:59:51;;;;;;;13.45;4.05;;;;;;;;;;6169064;23;20156;-90
2021/08/25 07:02:55;;;;;;;11.68;4.20;;;;;;;;;;6166798;23;20165;-90
2021/08/25 07:06:00;;;;;;;10.70;4.07;;;;;;;;;;6169739;23;20185;-90
2021/08/25 07:09:05;;;;;;;10.85;3.95;;;;;;;;;;6168735;23;20218;-91
2021/08/25 07:12:11;;;;;;;10.52;4.13;;;;;;;;;;6164147;23;20180;-91
2021/08/25 07:15:19;;;;;;;13.38;4.32;;;;;;;;;;6169653;23;20152;-92
2021/08/25 07:21:44;;;;;;;15.52;5.05;;;;;;;;;;6178901;23;20250;-92
2021/08/25 07:24:50;;;;;;;10.70;4.32;;;;;;;;;;6178914;23;20222;-92
2021/08/25 07:27:56;;;;;;;8.18;3.85;;;;;;;;;;6180505;23;20205;-91
2021/08/25 07:31:10;;;;;;;11.10;3.88;;;;;;;;;;6178518;23;20185;-92
2021/08/25 07:34:16;;;;;;;8.25;4.18;;;;;;;;;;6180715;23;20168;-91
2021/08/25 07:37:25;;;;;;;10.10;3.70;;;;;;;;;;6180928;23;20168;-92
2021/08/25 07:40:38;;;;;;;11.55;4.00;;;;;;;;;;6177221;23;20177;-92
2021/08/25 07:43:44;;;;;;;13.40;3.92;;;;;;;;;;6172603;23;20191;-92
2021/08/25 07:46:53;;;;;;;11.45;3.85;;;;;;;;;;6167294;23;20163;-93
2021/08/25 07:49:58;;;;;;;8.90;3.92;;;;;;;;;;6169150;23;20169;-92
2021/08/25 07:53:03;;;;;;;7.70;3.60;;;;;;;;;;6170520;23;20169;-92
2021/08/25 07:56:10;;;;;;;9.00;4.10;;;;;;;;;;6170923;23;20218;-89
2021/08/25 07:59:16;;;;;;;6.72;3.58;;;;;;;;;;6174450;23;20226;-89
2021/08/25 08:02:47;;;;;;;7.75;3.63;;;;;;;;;;6178921;23;20200;-91
2021/08/25 08:05:54;;;;;;;9.82;3.75;;;;;;;;;;6176940;23;20156;-91
2021/08/25 08:08:59;;;;;;;8.88;3.58;;;;;;;;;;6180767;23;20217;-91
2021/08/25 08:12:08;;;;;;;7.35;3.60;;;;;;;;;;6179650;23;20169;-91
2021/08/25 08:15:15;;;;;;;9.20;3.65;;;;;;;;;;6181484;23;20148;-90
2021/08/25 08:18:29;;;;;;;8.90;3.85;;;;;;;;;;6179757;23;20172;-92
2021/08/25 08:21:37;;;;;;;8.05;3.38;;;;;;;;;;6180136;23;20224;-90
2021/08/25 08:24:43;;;;;;;7.03;3.25;;;;;;;;;;6180241;23;20171;-90
2021/08/25 08:27:48;;;;;;;6.65;2.97;;;;;;;;;;6169883;23;20172;-91
2021/08/25 08:30:55;;;;;;;6.45;3.10;;;;;;;;;;6170221;23;20160;-90
2021/08/25 08:34:00;;;;;;;7.72;3.63;;;;;;;;;;6168653;23;20176;-90
2021/08/25 08:37:07;;;;;;;9.13;3.45;;;;;;;;;;6167312;23;20171;-91
2021/08/25 08:40:13;;;;;;;6.70;3.13;;;;;;;;;;6170429;23;20196;-92
2021/08/25 08:43:18;;;;;;;6.40;2.95;;;;;;;;;;6176085;23;20191;-91
2021/08/25 08:46:24;;;;;;;6.95;2.40;;;;;;;;;;6178940;23;20501;-91
2021/08/25 08:49:30;;;;;;;7.32;2.90;;;;;;;;;;6181625;23;20159;-92
2021/08/25 08:52:39;;;;;;;5.20;2.80;;;;;;;;;;6182353;23;20168;-89
2021/08/25 08:55:44;;;;;;;6.57;3.25;;;;;;;;;;6189073;23;20176;-92
2021/08/25 08:58:53;;;;;;;9.95;2.75;;;;;;;;;;6181718;23;20175;-89
2021/08/25 09:02:00;;;;;;;6.80;2.55;;;;;;;;;;6166431;23;20196;-91
2021/08/25 09:05:27;;;;;;;6.90;3.25;;;;;;;;;;6181399;23;20215;-89
2021/08/25 09:08:34;;;;;;;11.95;3.08;;;;;;;;;;6180905;23;20172;-89
2021/08/25 09:11:49;;;;;;;5.30;2.20;;;;;;;;;;6179849;23;20246;-92
2021/08/25 09:14:54;;;;;;;9.98;2.85;;;;;;;;;;6178673;23;20216;-90
2021/08/25 09:18:01;;;;;;;9.32;3.35;;;;;;;;;;6179743;23;20164;-90
2021/08/25 09:21:06;;;;;;;7.78;2.90;;;;;;;;;;6183746;23;20172;-91
2021/08/25 09:24:13;;;;;;;8.05;2.90;;;;;;;;;;6178152;23;20171;-90
2021/08/25 09:27:20;;;;;;;5.25;2.63;;;;;;;;;;6177864;23;20223;-91
2021/08/25 09:30:25;;;;;;;7.57;2.85;;;;;;;;;;6177078;23;20183;-90
2021/08/25 09:33:32;;;;;;;7.82;3.25;;;;;;;;;;6177076;23;20163;-91
2021/08/25 09:36:36;;;;;;;6.53;2.40;;;;;;;;;;6181631;23;20168;-90
2021/08/25 09:39:51;;;;;;;7.40;2.85;;;;;;;;;;6186179;23;20185;-90
2021/08/25 09:42:56;;;;;;;6.28;2.72;;;;;;;;;;6184060;23;20179;-90
2021/08/25 09:46:21;;;;;;;4.95;2.45;;;;;;;;;;6181692;23;20164;-89
2021/08/25 09:49:26;;;;;;;7.63;2.80;;;;;;;;;;6182843;23;20301;-90
2021/08/25 09:52:35;;;;;;;8.90;4.53;;;;;;;;;;6185258;23;20175;-90
2021/08/25 09:55:42;;;;;;;6.90;2.83;;;;;;;;;;6181736;23;20167;-89
2021/08/25 09:58:47;;;;;;;7.22;2.90;;;;;;;;;;6180144;23;20175;-89
2021/08/25 10:01:54;;;;;;;4.63;2.50;;;;;;;;;;6188263;23;20203;-90
2021/08/25 10:04:59;;;;;;;5.07;2.35;;;;;;;;;;6181521;23;20224;-89
2021/08/25 10:08:06;;;;;;;5.68;2.72;;;;;;;;;;6183267;23;20176;-88
2021/08/25 10:11:13;;;;;;;5.22;2.70;;;;;;;;;;6181344;23;20208;-88
2021/08/25 10:14:18;;;;;;;5.00;2.40;;;;;;;;;;6182126;23;20172;-90
2021/08/25 10:17:39;;;;;;;5.80;2.97;;;;;;;;;;6186423;23;20180;-89
2021/08/25 10:20:49;;;;;;;5.30;2.50;;;;;;;;;;6190717;23;20180;-88
2021/08/25 10:24:05;;;;;;;5.72;2.88;;;;;;;;;;6192871;23;20176;-91
2021/08/25 10:27:17;;;;;;;8.32;3.15;;;;;;;;;;6192099;23;20189;-89
2021/08/25 10:30:23;;;;;;;6.15;2.65;;;;;;;;;;6191079;23;20152;-90
2021/08/25 10:36:52;;;;;;;6.65;2.67;;;;;;;;;;6191688;23;20216;-90
2021/08/25 10:40:05;;;;;;;7.97;2.60;;;;;;;;;;6183036;23;20219;-90
2021/08/25 10:43:33;;;;;;;5.68;2.60;;;;;;;;;;6181367;23;20282;-90
2021/08/25 10:46:48;;;;;;;6.35;2.83;;;;;;;;;;6179420;23;20175;-90
2021/08/25 10:50:14;;;;;;;5.65;2.45;;;;;;;;;;6182722;23;20220;-90
2021/08/25 10:53:37;;;;;;;6.60;2.67;;;;;;;;;;6182381;23;20227;-91
2021/08/25 10:56:47;;;;;;;5.32;2.55;;;;;;;;;;6182781;23;20172;-91
2021/08/25 10:59:54;;;;;;;5.95;2.83;;;;;;;;;;6180724;23;20222;-91
2021/08/25 11:02:58;;;;;;;4.32;2.33;;;;;;;;;;6180713;23;20191;-89
2021/08/25 11:06:03;;;;;;;6.88;2.92;;;;;;;;;;6180907;23;20257;-88
2021/08/25 11:09:12;;;;;;;6.28;2.75;;;;;;;;;;6183222;23;20271;-90
2021/08/25 11:12:18;;;;;;;7.68;3.15;;;;;;;;;;6182429;23;20167;-89
2021/08/25 11:15:33;;;;;;;4.30;2.45;;;;;;;;;;6179266;23;20168;-91
2021/08/25 11:18:40;;;;;;;6.75;2.80;;;;;;;;;;6181459;23;20156;-90
2021/08/25 11:21:45;;;;;;;4.47;2.38;;;;;;;;;;6180223;23;20298;-90
2021/08/25 11:24:51;;;;;;;4.75;2.95;;;;;;;;;;6199872;23;20183;-91
2021/08/25 11:27:56;;;;;;;9.68;2.83;;;;;;;;;;6181058;23;20248;-89
2021/08/25 11:34:24;;;;;;;10.98;3.15;;;;;;;;;;6192337;23;20170;-92
2021/08/25 11:37:30;;;;;;;4.18;2.67;;;;;;;;;;6193203;23;20155;-90
2021/08/25 11:40:39;;;;;;;8.40;3.00;;;;;;;;;;6189495;23;20171;-91
2021/08/25 11:47:22;;;;;;;4.25;2.47;;;;;;;;;;6178661;23;20163;-91
2021/08/25 11:50:30;;;;;;;7.20;3.30;;;;;;;;;;6176101;23;20168;-91
2021/08/25 11:53:42;;;;;;;4.63;2.83;;;;;;;;;;6173185;23;20171;-91
2021/08/25 11:56:47;;;;;;;4.82;2.55;;;;;;;;;;6170405;23;20167;-90
2021/08/25 11:59:57;;;;;;;4.53;2.55;;;;;;;;;;6174579;23;20217;-90
2021/08/25 12:03:05;;;;;;;4.75;2.40;;;;;;;;;;6175475;23;20243;-91
2021/08/25 12:06:11;;;;;;;5.53;2.92;;;;;;;;;;6176557;23;20171;-92
2021/08/25 12:09:30;;;;;;;6.00;2.70;;;;;;;;;;6171628;23;20215;-91
2021/08/25 12:12:47;;;;;;;5.55;2.90;;;;;;;;;;6173290;23;20171;-90
2021/08/25 12:19:22;;;;;;;8.15;2.83;;;;;;;;;;6169332;23;20168;-91
2021/08/25 12:22:29;;;;;;;5.45;3.03;;;;;;;;;;6170703;23;20235;-90
2021/08/25 12:25:41;;;;;;;8.32;3.40;;;;;;;;;;6170507;23;20531;-91
2021/08/25 12:28:46;;;;;;;4.40;2.63;;;;;;;;;;6167415;23;20172;-90
2021/08/25 12:31:56;;;;;;;4.28;2.30;;;;;;;;;;6173474;23;20167;-90
2021/08/25 12:35:03;;;;;;;6.47;3.00;;;;;;;;;;6170442;23;20175;-90
2021/08/25 12:38:11;;;;;;;6.93;2.90;;;;;;;;;;6171487;23;20233;-92
2021/08/25 12:41:17;;;;;;;6.10;2.97;;;;;;;;;;6170077;23;20167;-91
2021/08/25 12:44:24;;;;;;;5.15;3.00;;;;;;;;;;6171091;23;20191;-93
2021/08/25 12:47:29;;;;;;;6.97;3.00;;;;;;;;;;6171617;23;20247;-89
2021/08/25 12:50:36;;;;;;;5.80;3.05;;;;;;;;;;6172472;23;20171;-89
2021/08/25 12:53:42;;;;;;;7.18;3.00;;;;;;;;;;6172152;23;20171;-91
2021/08/25 12:56:47;;;;;;;6.35;2.72;;;;;;;;;;6173109;23;20176;-89
2021/08/25 12:59:52;;;;;;;4.53;2.63;;;;;;;;;;6172658;23;20167;-92
2021/08/25 13:02:58;;;;;;;6.70;3.63;;;;;;;;;;6172384;23;20694;-89
2021/08/25 13:06:05;;;;;;;5.82;3.40;;;;;;;;;;6173315;23;20167;-92
2021/08/25 13:09:10;;;;;;;5.82;2.88;;;;;;;;;;6172720;23;20167;-91
2021/08/25 13:12:16;;;;;;;9.70;3.47;;;;;;;;;;6174791;23;20212;-91
2021/08/25 13:15:22;;;;;;;6.05;2.85;;;;;;;;;;6173717;23;20172;-89
2021/08/25 13:18:28;;;;;;;5.68;2.75;;;;;;;;;;6172449;23;20171;-91
2021/08/25 13:21:35;;;;;;;4.53;2.55;;;;;;;;;;6170285;23;20232;-91
2021/08/25 13:24:40;;;;;;;4.60;2.53;;;;;;;;;;6172609;23;20160;-89
2021/08/25 13:27:45;;;;;;;6.47;2.80;;;;;;;;;;6171856;23;20175;-91
2021/08/25 13:30:50;;;;;;;5.78;2.92;;;;;;;;;;6171522;23;20181;-92
2021/08/25 13:33:56;;;;;;;6.43;2.95;;;;;;;;;;6172697;23;20180;-91
2021/08/25 13:37:18;;;;;;;8.07;3.30;;;;;;;;;;6176056;23;20168;-92
2021/08/25 13:40:39;;;;;;;6.45;2.60;;;;;;;;;;6173525;23;20273;-90
2021/08/25 13:44:00;;;;;;;5.65;2.90;;;;;;;;;;6174853;23;20214;-91
2021/08/25 13:47:12;;;;;;;4.95;2.60;;;;;;;;;;6171192;23;20196;-92
2021/08/25 13:50:19;;;;;;;5.53;2.90;;;;;;;;;;6170541;23;20180;-90
2021/08/25 13:56:43;;;;;;;5.32;2.85;;;;;;;;;;6174035;23;20176;-92
2021/08/25 13:59:50;;;;;;;7.28;3.50;;;;;;;;;;6172495;23;20215;-93
2021/08/25 14:03:06;;;;;;;5.60;2.95;;;;;;;;;;6173624;23;20194;-91
2021/08/25 14:06:12;;;;;;;4.38;2.70;;;;;;;;;;6171825;23;20168;-90
2021/08/25 14:09:19;;;;;;;7.20;3.22;;;;;;;;;;6171056;23;20175;-92
2021/08/25 14:12:26;;;;;;;5.50;2.90;;;;;;;;;;6172595;23;20196;-92
2021/08/25 14:15:33;;;;;;;5.35;2.80;;;;;;;;;;6171906;23;20622;-90
2021/08/25 14:18:45;;;;;;;8.30;3.00;;;;;;;;;;6169844;23;20231;-91
2021/08/25 14:21:54;;;;;;;5.50;3.13;;;;;;;;;;6171869;23;20168;-89
2021/08/25 14:24:59;;;;;;;8.55;2.90;;;;;;;;;;6169488;23;20171;-89
2021/08/25 14:28:05;;;;;;;7.32;2.97;;;;;;;;;;6171631;23;20225;-89
2021/08/25 14:31:12;;;;;;;6.50;2.85;;;;;;;;;;6171089;23;20168;-90
2021/08/25 14:34:18;;;;;;;7.00;2.88;;;;;;;;;;6169987;23;20204;-90
2021/08/25 14:37:23;;;;;;;5.38;2.72;;;;;;;;;;6168965;23;20173;-90
2021/08/25 14:40:29;;;;;;;4.88;2.92;;;;;;;;;;6169406;23;20175;-89
2021/08/25 14:43:34;;;;;;;7.43;2.83;;;;;;;;;;6182342;23;20279;-90
2021/08/25 14:46:41;;;;;;;4.35;2.70;;;;;;;;;;6181667;23;20167;-90
2021/08/25 14:49:47;;;;;;;5.55;3.05;;;;;;;;;;6181023;23;20178;-90
2021/08/25 14:52:53;;;;;;;4.97;2.88;;;;;;;;;;6181143;23;20155;-91
2021/08/25 14:55:58;;;;;;;5.75;2.95;;;;;;;;;;6181039;23;20254;-88
2021/08/25 14:59:08;;;;;;;7.20;3.03;;;;;;;;;;6200271;23;20171;-89
2021/08/25 15:02:13;;;;;;;9.48;3.15;;;;;;;;;;6180887;23;20176;-90
2021/08/25 15:05:20;;;;;;;7.20;2.97;;;;;;;;;;6180356;23;20179;-91
2021/08/25 15:08:26;;;;;;;5.60;2.53;;;;;;;;;;6181186;23;20167;-90
2021/08/25 15:11:32;;;;;;;6.68;3.17;;;;;;;;;;6183043;23;20154;-89
2021/08/25 15:14:37;;;;;;;5.47;2.83;;;;;;;;;;6180681;23;20171;-90
2021/08/25 15:17:42;;;;;;;4.88;2.90;;;;;;;;;;6180723;23;20167;-89
2021/08/25 15:20:49;;;;;;;5.72;2.78;;;;;;;;;;6181223;23;20225;-90
2021/08/25 15:23:55;;;;;;;5.95;3.20;;;;;;;;;;6180705;23;20219;-90
2021/08/25 15:27:01;;;;;;;6.40;3.33;;;;;;;;;;6182724;23;20156;-90
2021/08/25 15:30:08;;;;;;;5.60;2.95;;;;;;;;;;6182337;23;20180;-91
2021/08/25 15:33:13;;;;;;;5.90;2.50;;;;;;;;;;6182312;23;20167;-88
2021/08/25 15:36:20;;;;;;;7.72;3.60;;;;;;;;;;6180138;23;20251;-90
2021/08/25 15:39:27;;;;;;;6.07;3.05;;;;;;;;;;6181531;23;20227;-88
2021/08/25 15:42:32;;;;;;;8.60;3.10;;;;;;;;;;6180493;23;20187;-91
2021/08/25 15:45:37;;;;;;;7.00;3.00;;;;;;;;;;6154069;23;20495;-90
2021/08/25 15:48:47;;;;;;;7.50;3.40;;;;;;;;;;6154154;23;20184;-91
2021/08/25 15:51:54;;;;;;;7.45;3.33;;;;;;;;;;6156127;23;20225;-91
2021/08/25 15:54:59;;;;;;;8.27;3.05;;;;;;;;;;6154590;23;20225;-93
2021/08/25 15:58:05;;;;;;;9.30;2.90;;;;;;;;;;6153203;23;20172;-90
2021/08/25 16:01:10;;;;;;;6.45;3.17;;;;;;;;;;6153994;23;20165;-90
2021/08/25 16:04:31;;;;;;;7.35;3.10;;;;;;;;;;6155569;23;20248;-90
2021/08/25 16:07:39;;;;;;;7.32;2.85;;;;;;;;;;6171899;23;20177;-90
2021/08/25 16:10:44;;;;;;;6.72;3.50;;;;;;;;;;6156888;23;20358;-91
2021/08/25 16:13:49;;;;;;;6.70;3.00;;;;;;;;;;6152152;23;20181;-90
2021/08/25 16:16:59;;;;;;;6.90;3.28;;;;;;;;;;6152815;23;20193;-89
2021/08/25 16:20:05;;;;;;;6.82;2.85;;;;;;;;;;6153470;23;20188;-90
2021/08/25 16:23:13;;;;;;;8.57;3.20;;;;;;;;;;6152685;23;20196;-91
2021/08/25 16:26:18;;;;;;;6.60;3.13;;;;;;;;;;6153335;23;20177;-91
2021/08/25 16:29:24;;;;;;;8.85;3.22;;;;;;;;;;6153256;23;20225;-92
2021/08/25 16:32:29;;;;;;;8.35;3.08;;;;;;;;;;6152110;23;20221;-91
2021/08/25 16:35:35;;;;;;;6.47;2.97;;;;;;;;;;6151474;23;20169;-91
2021/08/25 16:38:42;;;;;;;7.13;3.03;;;;;;;;;;6153891;23;20216;-90
2021/08/25 16:41:47;;;;;;;7.38;3.15;;;;;;;;;;6152393;23;20464;-91
2021/08/25 16:44:52;;;;;;;9.32;3.65;;;;;;;;;;6179110;23;20251;-91
2021/08/25 16:47:58;;;;;;;6.40;3.05;;;;;;;;;;6180726;23;20176;-89
2021/08/25 16:51:03;;;;;;;8.77;3.08;;;;;;;;;;6182998;23;20239;-90
2021/08/25 16:54:10;;;;;;;6.15;3.10;;;;;;;;;;6182438;23;20179;-90
2021/08/25 16:57:15;;;;;;;7.43;2.85;;;;;;;;;;6187458;23;20244;-90
2021/08/25 17:00:20;;;;;;;11.02;3.10;;;;;;;;;;6185116;23;20174;-91
2021/08/25 17:03:27;;;;;;;11.13;2.92;;;;;;;;;;6185542;23;20196;-89
2021/08/25 17:06:32;;;;;;;8.95;3.05;;;;;;;;;;6183624;23;20248;-90
2021/08/25 17:09:39;;;;;;;7.13;3.17;;;;;;;;;;6185409;23;20176;-88
2021/08/25 17:12:44;;;;;;;6.43;3.05;;;;;;;;;;6184409;23;20179;-89
2021/08/25 17:15:50;;;;;;;6.63;3.50;;;;;;;;;;6183289;23;20167;-88
2021/08/25 17:18:56;;;;;;;8.02;3.42;;;;;;;;;;6181601;23;20349;-89
2021/08/25 17:22:01;;;;;;;5.57;2.63;;;;;;;;;;6182358;23;20172;-87
2021/08/25 17:25:16;;;;;;;5.45;2.90;;;;;;;;;;6183304;23;20191;-90
2021/08/25 17:28:27;;;;;;;7.80;3.00;;;;;;;;;;6184006;23;20172;-90
2021/08/25 17:31:32;;;;;;;10.73;3.50;;;;;;;;;;6182491;23;20183;-90
2021/08/25 17:34:37;;;;;;;8.80;3.85;;;;;;;;;;6181315;23;20164;-90
2021/08/25 17:37:43;;;;;;;8.25;3.35;;;;;;;;;;6180671;23;20216;-89
2021/08/25 17:40:51;;;;;;;10.02;3.35;;;;;;;;;;6181454;23;20171;-90
2021/08/25 17:43:57;;;;;;;9.05;3.13;;;;;;;;;;6181513;23;20203;-89
2021/08/25 17:47:02;;;;;;;7.80;2.75;;;;;;;;;;6180267;23;20184;-89
2021/08/25 17:50:08;;;;;;;7.88;3.40;;;;;;;;;;6180326;23;20163;-91
2021/08/25 17:53:13;;;;;;;8.90;3.20;;;;;;;;;;6180248;23;20171;-91
2021/08/25 17:56:20;;;;;;;9.68;3.30;;;;;;;;;;6181134;23;20168;-91
2021/08/25 17:59:26;;;;;;;9.05;4.00;;;;;;;;;;6181642;23;20164;-90
2021/08/25 18:02:31;;;;;;;6.57;2.88;;;;;;;;;;6181107;23;20219;-90
2021/08/25 18:05:35;;;;;;;4.93;2.60;;;;;;;;;;6180857;23;20194;-90
2021/08/25 18:08:41;;;;;;;15.20;3.67;;;;;;;;;;6182888;23;20168;-90
2021/08/25 18:11:48;;;;;;;10.23;4.38;;;;;;;;;;6182151;23;20163;-90
2021/08/25 18:14:55;;;;;;;6.75;3.22;;;;;;;;;;6179705;23;20167;-89
2021/08/25 18:18:02;;;;;;;10.90;3.85;;;;;;;;;;6179540;23;20155;-91
2021/08/25 18:21:18;;;;;;;11.75;3.30;;;;;;;;;;6180000;23;20175;-90
2021/08/25 18:24:23;;;;;;;7.40;3.58;;;;;;;;;;6180209;23;20192;-88
2021/08/25 18:27:30;;;;;;;7.07;3.22;;;;;;;;;;6181572;23;20184;-89
2021/08/25 18:30:35;;;;;;;8.35;3.55;;;;;;;;;;6181621;23;20236;-91
2021/08/25 18:33:40;;;;;;;9.95;3.65;;;;;;;;;;6182010;23;20171;-92
2021/08/25 18:36:46;;;;;;;14.18;3.90;;;;;;;;;;6182966;23;20172;-91
2021/08/25 18:39:52;;;;;;;8.27;3.55;;;;;;;;;;6183171;23;20171;-91
2021/08/25 18:43:01;;;;;;;11.68;3.55;;;;;;;;;;6182815;23;20248;-92
2021/08/25 18:46:07;;;;;;;8.32;3.47;;;;;;;;;;6183322;23;20225;-91
2021/08/25 18:49:13;;;;;;;10.07;3.47;;;;;;;;;;6181340;23;20180;-92
2021/08/25 18:52:19;;;;;;;10.77;3.65;;;;;;;;;;6181897;23;20168;-91
2021/08/25 18:55:24;;;;;;;8.82;3.35;;;;;;;;;;6182569;23;20226;-92
2021/08/25 18:58:31;;;;;;;7.18;3.28;;;;;;;;;;6181892;23;20662;-90
2021/08/25 19:01:36;;;;;;;11.18;3.97;;;;;;;;;;6182781;23;20229;-90